Time;durP1;ratioP1;P1;durP2;ratioP2;P2;SDS_P1;SDS_P2;PMS_P1;PMS_P2;Temp;Humidity;BMP_temperature;BMP_pressure;BME280_temperature;BME280_humidity;BME280_pressure;Samples;Min_cycle;Max_cycle;Signal;HPM_P1;HPM_P2
2023/04/25 00:00:01;;;;;;;3.17;2.47;;;;;;;8.85;96.45;97543.41;4953184;28;20216;-79
2023/04/25 00:02:29;;;;;;;3.33;2.40;;;;;;;8.83;96.93;97537.41;4953859;28;20564;-77
2023/04/25 00:04:57;;;;;;;2.43;2.23;;;;;;;8.71;97.42;97540.94;4953722;29;20213;-80
2023/04/25 00:07:26;;;;;;;2.77;2.57;;;;;;;8.67;100.00;97542.09;4953497;29;20282;-79
2023/04/25 00:09:52;;;;;;;2.30;2.10;;;;;;;8.66;100.00;97546.53;4952970;29;20214;-80
2023/04/25 00:12:22;;;;;;;2.83;2.30;;;;;;;8.62;100.00;97549.50;4953537;29;20217;-80
2023/04/25 00:14:49;;;;;;;2.20;2.00;;;;;;;8.66;100.00;97550.94;4953353;29;20583;-80
2023/04/25 00:17:19;;;;;;;2.87;2.30;;;;;;;8.69;100.00;97548.09;4953207;29;20305;-79
2023/04/25 00:19:46;;;;;;;1.90;1.80;;;;;;;8.71;100.00;97548.84;4952819;29;20619;-79
2023/04/25 00:22:13;;;;;;;3.23;2.30;;;;;;;8.72;100.00;97545.25;4953629;29;20221;-77
2023/04/25 00:24:40;;;;;;;4.17;2.20;;;;;;;8.69;100.00;97545.47;4953342;29;20203;-79
2023/04/25 00:27:07;;;;;;;2.17;1.97;;;;;;;8.65;100.00;97539.59;4953345;28;20232;-77
2023/04/25 00:29:34;;;;;;;2.03;1.83;;;;;;;8.65;100.00;97536.09;4952477;29;20238;-77
2023/04/25 00:32:01;;;;;;;2.77;2.07;;;;;;;8.62;100.00;97544.22;4952926;29;20214;-78
2023/04/25 00:34:28;;;;;;;2.20;2.00;;;;;;;8.58;100.00;97551.47;4953119;29;20234;-78
2023/04/25 00:36:55;;;;;;;3.50;1.70;;;;;;;8.53;100.00;97545.72;4953099;28;20257;-78
2023/04/25 00:39:21;;;;;;;4.03;2.40;;;;;;;8.54;100.00;97538.63;4952050;28;20295;-78
2023/04/25 00:41:52;;;;;;;3.57;2.13;;;;;;;8.57;100.00;97536.63;4953278;29;20219;-78
2023/04/25 00:44:19;;;;;;;2.43;2.20;;;;;;;8.55;100.00;97529.78;4952894;29;20212;-78
2023/04/25 00:46:48;;;;;;;2.63;2.10;;;;;;;8.49;100.00;97527.59;4953101;29;20238;-78
2023/04/25 00:49:17;;;;;;;2.47;1.83;;;;;;;8.48;100.00;97524.13;4952335;29;20212;-78
2023/04/25 00:51:45;;;;;;;2.07;1.80;;;;;;;8.49;100.00;97517.03;4953019;28;20215;-78
2023/04/25 00:54:11;;;;;;;2.93;2.10;;;;;;;8.52;100.00;97522.13;4952772;28;20736;-79
2023/04/25 00:56:38;;;;;;;3.47;2.20;;;;;;;8.44;100.00;97517.38;4952922;28;20246;-79
2023/04/25 00:59:06;;;;;;;2.23;2.00;;;;;;;8.43;100.00;97517.47;4951743;29;20220;-79
2023/04/25 01:01:33;;;;;;;2.17;1.97;;;;;;;8.38;100.00;97516.97;4952755;29;20211;-79
2023/04/25 01:04:01;;;;;;;2.40;2.10;;;;;;;8.34;100.00;97523.41;4952467;29;20224;-79
2023/04/25 01:06:28;;;;;;;2.77;2.07;;;;;;;8.33;100.00;97516.47;4952708;29;20207;-79
2023/04/25 01:08:55;;;;;;;2.27;1.80;;;;;;;8.30;100.00;97511.41;4952178;28;20230;-80
2023/04/25 01:11:21;;;;;;;3.20;2.17;;;;;;;8.25;100.00;97509.09;4951880;28;20222;-78
2023/04/25 01:13:48;;;;;;;1.90;1.80;;;;;;;8.24;100.00;97519.72;4952332;28;20256;-79
2023/04/25 01:16:16;;;;;;;2.20;2.00;;;;;;;8.28;100.00;97506.25;4952541;28;20681;-80
2023/04/25 01:18:44;;;;;;;2.37;1.97;;;;;;;8.27;100.00;97498.47;4952569;29;20207;-79
2023/04/25 01:21:15;;;;;;;4.07;2.13;;;;;;;8.24;100.00;97503.91;4951820;28;20219;-79
2023/04/25 01:23:42;;;;;;;2.80;2.47;;;;;;;8.28;99.95;97503.63;4952403;28;20307;-79
2023/04/25 01:26:12;;;;;;;2.53;2.10;;;;;;;8.33;99.76;97503.28;4952370;28;20562;-80
2023/04/25 01:28:40;;;;;;;2.73;2.00;;;;;;;8.37;98.97;97505.59;4952424;29;20227;-80
2023/04/25 01:31:07;;;;;;;1.90;1.77;;;;;;;8.39;98.10;97490.53;4951505;28;20204;-79
2023/04/25 01:33:34;;;;;;;2.20;2.00;;;;;;;8.38;97.38;97494.09;4952264;28;20246;-81
2023/04/25 01:36:04;;;;;;;2.50;2.13;;;;;;;8.32;97.71;97485.81;4952281;29;20230;-79
2023/04/25 01:38:32;;;;;;;1.90;1.80;;;;;;;8.27;97.93;97485.28;4951941;29;20246;-79
2023/04/25 01:40:59;;;;;;;2.20;2.00;;;;;;;8.20;97.82;97494.56;4951649;29;20212;-79
2023/04/25 01:43:26;;;;;;;3.70;2.00;;;;;;;8.14;98.21;97494.97;4952118;29;20211;-79
2023/04/25 01:45:53;;;;;;;2.53;2.00;;;;;;;8.12;98.40;97494.22;4951902;29;20221;-79
2023/04/25 01:48:19;;;;;;;2.43;2.23;;;;;;;8.08;99.21;97490.13;4951977;29;20322;-79
2023/04/25 01:50:46;;;;;;;2.10;1.90;;;;;;;8.10;99.50;97498.75;4951134;29;20705;-79
2023/04/25 01:53:14;;;;;;;2.47;1.90;;;;;;;8.13;99.12;97494.13;4952127;29;20211;-79
2023/04/25 01:55:42;;;;;;;3.07;2.10;;;;;;;8.19;99.07;97495.47;4952075;28;20225;-79
2023/04/25 01:58:12;;;;;;;2.20;1.90;;;;;;;8.22;99.13;97492.66;4951900;28;20238;-79
2023/04/25 02:00:39;;;;;;;4.40;2.30;;;;;;;8.30;96.97;97490.34;4950987;28;20224;-79
2023/04/25 02:03:05;;;;;;;3.27;2.20;;;;;;;8.32;96.20;97489.28;4951861;29;20219;-79
2023/04/25 02:05:35;;;;;;;2.70;2.30;;;;;;;8.37;95.18;97491.56;4951804;29;20214;-79
2023/04/25 02:08:02;;;;;;;2.40;2.20;;;;;;;8.43;95.08;97485.88;4951942;28;20232;-79
2023/04/25 02:10:28;;;;;;;2.70;2.30;;;;;;;8.47;95.70;97492.63;4951121;29;20226;-79
2023/04/25 02:12:57;;;;;;;2.33;2.00;;;;;;;8.58;94.40;97488.25;4951910;29;20226;-79
2023/04/25 02:15:24;;;;;;;2.33;2.13;;;;;;;8.55;95.71;97485.00;4951487;28;20604;-79
2023/04/25 02:17:52;;;;;;;2.50;2.20;;;;;;;8.57;96.97;97493.66;4951519;29;20235;-79
2023/04/25 02:20:21;;;;;;;3.57;2.33;;;;;;;8.57;97.63;97483.13;4949875;28;20625;-79
2023/04/25 02:22:48;;;;;;;4.13;2.53;;;;;;;8.53;99.24;97492.19;4951733;28;20246;-79
2023/04/25 02:25:15;;;;;;;4.00;2.93;;;;;;;8.53;100.00;97486.91;4951525;29;20680;-79
2023/04/25 02:27:42;;;;;;;5.27;2.90;;;;;;;8.46;100.00;97493.56;4951474;28;20322;-79
2023/04/25 02:30:10;;;;;;;4.03;2.93;;;;;;;8.34;100.00;97487.38;4950587;29;20215;-79
2023/04/25 02:32:37;;;;;;;3.07;2.70;;;;;;;8.29;100.00;97493.91;4951504;29;20208;-80
2023/04/25 02:35:04;;;;;;;3.43;3.00;;;;;;;8.21;100.00;97483.09;4951221;28;20701;-81
2023/04/25 02:37:30;;;;;;;3.20;2.90;;;;;;;8.14;100.00;97494.97;4969406;23;20295;-85
2023/04/25 02:39:57;;;;;;;3.50;2.83;;;;;;;8.12;100.00;97491.59;4969837;28;20212;-85
2023/04/25 02:42:23;;;;;;;3.90;2.80;;;;;;;8.12;100.00;97494.22;4970448;28;20585;-85
2023/04/25 02:44:50;;;;;;;3.50;2.70;;;;;;;8.13;100.00;97483.59;4970238;28;20218;-85
2023/04/25 02:47:18;;;;;;;4.03;2.80;;;;;;;8.14;100.00;97484.44;4970145;28;20239;-86
2023/04/25 02:49:44;;;;;;;4.10;2.40;;;;;;;8.17;100.00;97481.59;4969541;28;20214;-85
2023/04/25 02:52:11;;;;;;;4.70;2.70;;;;;;;8.18;100.00;97478.00;4970386;28;20233;-85
2023/04/25 02:54:38;;;;;;;3.47;2.63;;;;;;;8.18;100.00;97476.22;4970200;28;20234;-85
2023/04/25 02:57:05;;;;;;;5.13;2.87;;;;;;;8.17;100.00;97490.34;4970147;28;20235;-85
2023/04/25 02:59:32;;;;;;;3.40;2.90;;;;;;;8.19;100.00;97487.56;4969476;28;20213;-85
2023/04/25 03:01:58;;;;;;;4.07;2.90;;;;;;;8.20;100.00;97479.59;4970246;28;20210;-83
2023/04/25 03:04:26;;;;;;;3.13;2.70;;;;;;;8.22;100.00;97479.50;4970256;28;20583;-84
2023/04/25 03:06:53;;;;;;;4.60;2.80;;;;;;;8.25;100.00;97476.66;4970034;28;20211;-85
2023/04/25 03:09:20;;;;;;;4.40;2.90;;;;;;;8.29;100.00;97478.97;4969396;28;20214;-85
2023/04/25 03:11:46;;;;;;;5.73;2.67;;;;;;;8.26;100.00;97473.91;4969999;28;20229;-84
2023/04/25 03:14:13;;;;;;;4.50;2.70;;;;;;;8.29;100.00;97478.13;4970010;28;20231;-84
2023/04/25 03:16:40;;;;;;;2.97;2.67;;;;;;;8.23;100.00;97465.41;4969663;28;20213;-83
2023/04/25 03:19:07;;;;;;;3.93;2.97;;;;;;;8.19;100.00;97466.50;4969787;28;20222;-85
2023/04/25 03:21:36;;;;;;;3.50;2.73;;;;;;;8.16;100.00;97461.47;4969912;28;20219;-85
2023/04/25 03:24:05;;;;;;;3.40;2.90;;;;;;;8.09;100.00;97463.69;4969815;28;20207;-85
2023/04/25 03:26:32;;;;;;;3.90;3.10;;;;;;;8.04;100.00;97468.44;4969710;28;20565;-85
2023/04/25 03:28:58;;;;;;;3.33;2.80;;;;;;;7.98;100.00;97462.75;4969509;28;20328;-85
2023/04/25 03:31:25;;;;;;;3.30;3.00;;;;;;;8.01;100.00;97462.53;4968837;28;20217;-85
2023/04/25 03:33:51;;;;;;;3.03;2.60;;;;;;;7.98;100.00;97465.38;4969496;28;20237;-84
2023/04/25 03:36:18;;;;;;;4.20;2.97;;;;;;;8.04;100.00;97468.44;4969715;28;20213;-84
2023/04/25 03:38:46;;;;;;;3.53;3.20;;;;;;;8.17;100.00;97469.28;4969333;28;20358;-86
2023/04/25 03:41:12;;;;;;;5.03;2.80;;;;;;;8.22;100.00;97466.34;4968776;28;20234;-84
2023/04/25 03:43:39;;;;;;;4.83;2.97;;;;;;;8.26;100.00;97467.81;4969417;28;20329;-84
2023/04/25 03:46:05;;;;;;;4.20;3.27;;;;;;;8.29;100.00;97467.59;4969569;28;20309;-84
2023/04/25 03:48:32;;;;;;;3.27;2.97;;;;;;;8.32;100.00;97468.22;4969434;28;20748;-84
2023/04/25 03:50:58;;;;;;;3.60;3.10;;;;;;;8.35;100.00;97468.00;4968735;28;20207;-84
2023/04/25 03:53:26;;;;;;;4.07;3.30;;;;;;;8.45;100.00;97463.75;4969429;28;20218;-84
2023/04/25 03:55:54;;;;;;;3.40;3.10;;;;;;;8.45;100.00;97465.56;4969244;28;20740;-84
2023/04/25 03:58:22;;;;;;;3.63;3.20;;;;;;;8.43;100.00;97465.66;4969191;28;20248;-84
2023/04/25 04:00:49;;;;;;;4.87;3.23;;;;;;;8.43;100.00;97457.78;4968620;28;20217;-84
2023/04/25 04:03:15;;;;;;;4.90;3.00;;;;;;;8.39;100.00;97458.94;4969381;28;20316;-84
2023/04/25 04:05:42;;;;;;;4.20;3.40;;;;;;;8.31;100.00;97455.16;4969364;28;20204;-84
2023/04/25 04:08:08;;;;;;;3.60;3.30;;;;;;;8.24;100.00;97453.91;4969139;28;20271;-84
2023/04/25 04:10:35;;;;;;;4.80;3.50;;;;;;;8.16;100.00;97450.94;4968408;28;20214;-84
2023/04/25 04:13:03;;;;;;;3.87;3.47;;;;;;;8.16;100.00;97456.22;4969322;28;20214;-83
2023/04/25 04:15:32;;;;;;;6.23;3.90;;;;;;;8.10;100.00;97456.66;4969270;28;20233;-83
2023/04/25 04:18:02;;;;;;;4.50;3.77;;;;;;;8.09;100.00;97460.22;4968881;28;20790;-81
2023/04/25 04:20:29;;;;;;;4.30;3.90;;;;;;;8.11;100.00;97459.19;4968399;28;20287;-80
2023/04/25 04:22:55;;;;;;;4.17;3.67;;;;;;;8.13;100.00;97459.91;4968899;28;20208;-81
2023/04/25 04:25:22;;;;;;;6.20;3.80;;;;;;;8.10;100.00;97462.75;4968922;28;20206;-81
2023/04/25 04:27:48;;;;;;;5.43;3.93;;;;;;;8.15;100.00;97470.31;4968890;28;20303;-81
2023/04/25 04:30:16;;;;;;;5.97;3.67;;;;;;;8.21;100.00;97472.56;4968566;28;20217;-80
2023/04/25 04:32:43;;;;;;;4.70;3.70;;;;;;;8.22;100.00;97467.19;4968783;28;20220;-81
2023/04/25 04:35:10;;;;;;;5.57;4.43;;;;;;;8.24;100.00;97459.16;4968885;28;20322;-81
2023/04/25 04:37:37;;;;;;;4.83;3.57;;;;;;;8.27;100.00;97464.25;4968661;28;20243;-81
2023/04/25 04:40:05;;;;;;;4.30;3.73;;;;;;;8.26;100.00;97468.66;4968195;28;20220;-80
2023/04/25 04:42:31;;;;;;;4.93;4.10;;;;;;;8.29;100.00;97467.59;4969087;28;20583;-81
2023/04/25 04:44:58;;;;;;;5.23;4.13;;;;;;;8.35;100.00;97475.06;4971336;28;20221;-80
2023/04/25 04:47:30;;;;;;;5.73;3.77;;;;;;;8.41;100.00;97479.88;4972070;28;20276;-80
2023/04/25 04:49:57;;;;;;;3.90;3.50;;;;;;;8.35;100.00;97478.56;4971558;28;20213;-80
2023/04/25 04:52:23;;;;;;;6.20;3.90;;;;;;;8.34;100.00;97487.38;4971923;28;20217;-80
2023/04/25 04:54:50;;;;;;;5.93;4.10;;;;;;;8.33;100.00;97484.88;4972192;28;20245;-80
2023/04/25 04:57:17;;;;;;;4.47;3.40;;;;;;;8.34;100.00;97489.19;4971883;28;20237;-80
2023/04/25 04:59:43;;;;;;;3.97;3.63;;;;;;;8.39;100.00;97493.16;4971292;28;20256;-79
2023/04/25 05:02:10;;;;;;;3.60;3.20;;;;;;;8.45;100.00;97491.91;4971838;28;20212;-79
2023/04/25 05:04:38;;;;;;;3.60;3.20;;;;;;;8.50;100.00;97493.25;4971855;28;20233;-80
2023/04/25 05:07:04;;;;;;;3.80;3.37;;;;;;;8.54;100.00;97496.50;4971632;28;20230;-80
2023/04/25 05:09:31;;;;;;;4.27;3.60;;;;;;;8.56;100.00;97499.88;4971353;28;20308;-80
2023/04/25 05:11:57;;;;;;;4.13;3.60;;;;;;;8.63;100.00;97501.13;4971715;28;20214;-80
2023/04/25 05:14:24;;;;;;;4.70;3.57;;;;;;;8.67;100.00;97494.66;4977523;28;20245;-80
2023/04/25 05:16:50;;;;;;;5.50;3.63;;;;;;;8.74;100.00;97488.00;4980044;28;20220;-80
2023/04/25 05:19:17;;;;;;;4.77;3.70;;;;;;;8.75;100.00;97495.81;4978581;28;20213;-80
2023/04/25 05:21:44;;;;;;;6.67;4.20;;;;;;;8.84;100.00;97489.03;4978289;28;20210;-81
2023/04/25 05:24:11;;;;;;;3.97;3.50;;;;;;;8.94;99.53;97495.34;4979174;28;20219;-81
2023/04/25 05:26:38;;;;;;;5.50;3.37;;;;;;;9.02;98.35;97496.47;4979170;28;20237;-80
2023/04/25 05:29:05;;;;;;;4.27;3.50;;;;;;;9.16;97.86;97488.38;4978704;28;20239;-81
2023/04/25 05:31:31;;;;;;;3.90;3.50;;;;;;;9.22;96.80;97497.63;4978322;28;20722;-81
2023/04/25 05:33:58;;;;;;;5.80;3.73;;;;;;;9.28;96.93;97492.75;4977954;28;20207;-81
2023/04/25 05:36:25;;;;;;;4.00;3.60;;;;;;;9.26;97.44;97489.38;4974520;28;20234;-81
2023/04/25 05:38:53;;;;;;;4.93;3.63;;;;;;;9.28;98.09;97499.81;4971255;28;20242;-80
2023/04/25 05:41:19;;;;;;;4.80;3.67;;;;;;;9.24;97.24;97495.72;4970741;28;20213;-81
2023/04/25 05:43:48;;;;;;;4.97;4.17;;;;;;;9.19;97.35;97496.03;4971296;28;20221;-90
2023/04/25 05:46:15;;;;;;;3.60;3.30;;;;;;;9.07;98.70;97504.84;4971745;28;20214;-87
2023/04/25 05:48:41;;;;;;;5.30;3.53;;;;;;;9.01;99.62;97505.28;4971502;28;20327;-85
2023/04/25 05:51:08;;;;;;;3.80;3.40;;;;;;;8.89;100.00;97500.94;4970725;28;20211;-84
2023/04/25 05:53:35;;;;;;;3.70;3.37;;;;;;;8.83;100.00;97505.81;4971639;28;20213;-86
2023/04/25 05:56:02;;;;;;;3.60;3.30;;;;;;;8.80;100.00;97503.38;4970079;28;20235;-86
2023/04/25 05:58:29;;;;;;;6.00;4.33;;;;;;;8.81;100.00;97505.09;4971347;28;20234;-87
2023/04/25 06:00:56;;;;;;;4.30;3.90;;;;;;;8.80;100.00;97508.63;4970234;28;20568;-86
2023/04/25 06:03:22;;;;;;;3.93;3.53;;;;;;;8.80;100.00;97495.47;4971194;28;20216;-85
2023/04/25 06:05:49;;;;;;;4.43;3.53;;;;;;;8.75;100.00;97508.16;4971314;28;20574;-83
2023/04/25 06:08:15;;;;;;;4.97;4.00;;;;;;;8.85;100.00;97506.53;4970960;28;20324;-84
2023/04/25 06:10:42;;;;;;;4.30;3.90;;;;;;;8.96;100.00;97511.88;4970235;28;20696;-84
2023/04/25 06:13:10;;;;;;;3.83;3.27;;;;;;;9.04;100.00;97513.00;4970888;28;20211;-83
2023/04/25 06:15:36;;;;;;;3.80;3.33;;;;;;;9.20;100.00;97515.34;4970950;28;20235;-84
2023/04/25 06:18:03;;;;;;;3.60;3.30;;;;;;;9.35;99.88;97514.22;4970989;28;20230;-83
2023/04/25 06:20:30;;;;;;;4.20;3.27;;;;;;;9.39;98.82;97510.41;4970185;28;20236;-83
2023/04/25 06:22:57;;;;;;;3.73;3.00;;;;;;;9.44;98.26;97513.53;4970821;28;20588;-82
2023/04/25 06:25:23;;;;;;;4.30;3.33;;;;;;;9.47;98.21;97508.03;4970604;28;20214;-79
2023/04/25 06:27:50;;;;;;;5.07;3.37;;;;;;;9.47;97.02;97503.59;4970478;28;20234;-80
2023/04/25 06:30:22;;;;;;;4.30;3.40;;;;;;;9.52;96.81;97495.34;4969813;28;20214;-80
2023/04/25 06:32:48;;;;;;;5.23;3.30;;;;;;;9.61;95.12;97492.03;4970579;28;20210;-77
2023/04/25 06:35:15;;;;;;;3.90;3.10;;;;;;;9.67;94.52;97481.00;4970620;28;20242;-76
2023/04/25 06:37:41;;;;;;;4.73;3.43;;;;;;;9.77;94.33;97484.63;4969011;28;20607;-79
2023/04/25 06:40:09;;;;;;;4.50;3.73;;;;;;;9.98;93.96;97483.00;4967276;28;20214;-79
2023/04/25 06:42:35;;;;;;;4.20;3.20;;;;;;;10.15;92.11;97472.81;4967508;28;20301;-79
2023/04/25 06:45:02;;;;;;;6.10;3.40;;;;;;;10.33;88.15;97460.00;4967416;28;20243;-79
2023/04/25 06:47:30;;;;;;;3.33;2.97;;;;;;;10.48;88.17;97469.34;4969997;28;20236;-77
2023/04/25 06:49:57;;;;;;;3.70;3.10;;;;;;;10.69;87.90;97475.56;4969606;28;20217;-79
2023/04/25 06:52:23;;;;;;;3.97;3.10;;;;;;;10.79;86.02;97471.22;4967069;28;20236;-79
2023/04/25 06:54:50;;;;;;;3.90;3.50;;;;;;;10.89;85.22;97465.06;4966720;28;20222;-79
2023/04/25 06:57:16;;;;;;;5.57;3.20;;;;;;;10.88;81.13;97449.34;4967311;28;20237;-79
2023/04/25 06:59:43;;;;;;;3.60;3.20;;;;;;;10.82;80.85;97448.03;4968059;28;20333;-81
2023/04/25 07:02:09;;;;;;;3.23;2.93;;;;;;;10.81;82.14;97469.28;4969211;28;20894;-81
2023/04/25 07:04:37;;;;;;;3.80;3.40;;;;;;;10.74;82.76;97474.25;4968900;28;20222;-79
2023/04/25 07:07:04;;;;;;;3.90;3.07;;;;;;;10.70;81.63;97466.69;4967781;28;20584;-77
2023/04/25 07:09:33;;;;;;;5.53;3.93;;;;;;;10.58;81.79;97472.94;4968583;28;20660;-76
2023/04/25 07:12:01;;;;;;;4.20;3.80;;;;;;;10.45;81.58;97469.59;4968692;28;20260;-78
2023/04/25 07:14:27;;;;;;;3.90;3.50;;;;;;;10.39;82.50;97472.72;4968378;28;20211;-80
2023/04/25 07:16:55;;;;;;;5.40;3.87;;;;;;;10.34;83.31;97477.53;4969081;28;20256;-83
2023/04/25 07:19:23;;;;;;;4.13;3.70;;;;;;;10.33;85.98;97489.06;4968520;28;20217;-86
2023/04/25 07:21:51;;;;;;;4.17;3.20;;;;;;;10.32;84.96;97479.41;4968211;28;20207;-84
2023/04/25 07:24:17;;;;;;;4.00;3.60;;;;;;;10.31;82.95;97477.75;4968979;28;20228;-83
2023/04/25 07:26:44;;;;;;;4.53;4.13;;;;;;;10.16;82.70;97481.59;4968855;28;20223;-85
2023/04/25 07:29:11;;;;;;;3.93;3.53;;;;;;;10.15;84.94;97485.19;4967963;28;20219;-85
2023/04/25 07:31:38;;;;;;;4.27;3.63;;;;;;;10.15;87.11;97501.06;4969260;28;20219;-85
2023/04/25 07:34:05;;;;;;;4.67;4.17;;;;;;;10.11;87.78;97510.16;4969047;28;20221;-85
2023/04/25 07:36:31;;;;;;;5.50;3.80;;;;;;;10.13;88.44;97511.72;4968115;28;20962;-85
2023/04/25 07:38:59;;;;;;;4.80;4.10;;;;;;;10.09;86.35;97504.16;4968634;28;20723;-85
2023/04/25 07:41:26;;;;;;;4.80;4.33;;;;;;;9.92;85.85;97499.28;4968339;28;20219;-85
2023/04/25 07:43:52;;;;;;;5.32;4.72;;;;;;;9.94;86.65;97505.28;4968480;28;20922;-84
2023/04/25 07:46:19;;;;;;;6.80;4.67;;;;;;;9.86;87.63;97510.31;4969643;28;20231;-84
2023/04/25 07:48:45;;;;;;;6.23;4.43;;;;;;;9.76;89.69;97525.16;4969707;28;20238;-85
2023/04/25 07:51:12;;;;;;;5.80;3.97;;;;;;;9.67;91.87;97526.69;4968465;28;20206;-85
2023/04/25 07:53:38;;;;;;;5.03;4.13;;;;;;;9.62;93.57;97533.28;4967384;28;20250;-84
2023/04/25 07:56:07;;;;;;;5.27;4.40;;;;;;;9.52;96.56;97543.69;4967273;28;20238;-84
2023/04/25 07:58:34;;;;;;;4.47;3.80;;;;;;;9.39;96.14;97547.31;4966193;28;20236;-88
2023/04/25 08:01:00;;;;;;;5.47;4.57;;;;;;;9.22;95.80;97542.44;4966232;28;20211;-83
2023/04/25 08:03:27;;;;;;;4.90;4.40;;;;;;;9.08;97.16;97545.25;4966607;28;20218;-80
2023/04/25 08:05:54;;;;;;;7.03;4.87;;;;;;;9.12;100.00;97554.63;4967793;28;20220;-89
2023/04/25 08:08:20;;;;;;;6.47;4.80;;;;;;;8.85;100.00;97554.81;4967770;28;20239;-91
2023/04/25 08:10:47;;;;;;;7.60;5.30;;;;;;;8.79;100.00;97557.88;4966523;28;20211;-90
2023/04/25 08:13:15;;;;;;;6.60;5.30;;;;;;;8.65;100.00;97571.19;4968315;28;20244;-90
2023/04/25 08:15:42;;;;;;;7.53;5.77;;;;;;;8.71;100.00;97578.66;4968530;28;20238;-89
2023/04/25 08:18:09;;;;;;;8.23;6.95;;;;;;;8.43;100.00;97572.78;4967290;28;20446;-82
2023/04/25 08:20:35;;;;;;;8.37;6.17;;;;;;;8.35;100.00;97583.00;4971878;28;20248;-82
2023/04/25 08:23:02;;;;;;;7.73;6.33;;;;;;;8.27;100.00;97580.06;4972680;28;20216;-82
2023/04/25 08:25:28;;;;;;;7.53;6.27;;;;;;;8.25;100.00;97579.31;4972342;28;20259;-82
2023/04/25 08:27:55;;;;;;;8.97;6.57;;;;;;;8.30;100.00;97585.09;4972670;28;20610;-82
2023/04/25 08:30:24;;;;;;;8.23;6.70;;;;;;;8.24;100.00;97585.53;4971673;28;20274;-82
2023/04/25 08:32:50;;;;;;;7.70;6.63;;;;;;;8.29;100.00;97593.97;4972542;28;20305;-82
2023/04/25 08:35:17;;;;;;;7.80;6.73;;;;;;;8.28;100.00;97594.91;4972103;28;20242;-83
2023/04/25 08:37:44;;;;;;;8.03;6.33;;;;;;;8.30;100.00;97608.81;4985940;22;20264;-84
2023/04/25 08:40:13;;;;;;;7.83;5.93;;;;;;;8.30;100.00;97607.03;4971798;28;20214;-85
2023/04/25 08:42:42;;;;;;;6.80;5.73;;;;;;;8.28;100.00;97608.94;4972634;28;20214;-78
2023/04/25 08:45:10;;;;;;;6.40;5.43;;;;;;;8.27;100.00;97609.84;4965492;28;20582;-79
2023/04/25 08:47:39;;;;;;;7.13;5.50;;;;;;;8.25;100.00;97618.78;4968211;28;20238;-78
2023/04/25 08:50:06;;;;;;;6.80;5.47;;;;;;;8.22;100.00;97624.28;4959653;28;20210;-78
2023/04/25 08:52:45;;;;;;;6.60;5.80;;;;;;;8.17;100.00;97626.34;4931733;28;20221;-78
2023/04/25 08:55:13;;;;;;;7.40;5.60;;;;;;;8.03;100.00;97629.06;4949748;28;20213;-78
2023/04/25 08:57:42;;;;;;;7.13;5.43;;;;;;;7.94;100.00;97625.25;4951974;28;20293;-78
2023/04/25 09:00:10;;;;;;;6.13;5.53;;;;;;;7.88;100.00;97630.06;4951455;28;20220;-78
2023/04/25 09:02:38;;;;;;;6.50;4.93;;;;;;;7.79;100.00;97633.31;4951504;29;20209;-78
2023/04/25 09:05:06;;;;;;;8.47;6.20;;;;;;;7.76;100.00;97636.16;4947326;28;20598;-78
2023/04/25 09:07:33;;;;;;;9.33;6.47;;;;;;;7.81;100.00;97647.22;4949056;28;20234;-78
2023/04/25 09:10:01;;;;;;;11.10;7.63;;;;;;;7.86;100.00;97645.13;4947697;28;20226;-77
2023/04/25 09:12:29;;;;;;;8.83;7.27;;;;;;;7.87;100.00;97652.06;4949347;28;20213;-77
2023/04/25 09:15:05;;;;;;;9.10;7.70;;;;;;;7.92;100.00;97657.88;4948967;28;20611;-77
2023/04/25 09:17:31;;;;;;;9.03;7.40;;;;;;;7.92;100.00;97660.50;4951485;28;20603;-77
2023/04/25 09:20:08;;;;;;;11.00;7.97;;;;;;;7.97;100.00;97667.13;4951113;28;20248;-77
2023/04/25 09:22:35;;;;;;;8.87;7.53;;;;;;;7.98;100.00;97663.59;4952171;28;20752;-77
2023/04/25 09:25:04;;;;;;;9.50;8.23;;;;;;;7.95;100.00;97665.59;4950876;28;20216;-77
2023/04/25 09:27:30;;;;;;;12.30;9.00;;;;;;;7.94;100.00;97672.63;4951644;28;20712;-77
2023/04/25 09:30:00;;;;;;;12.20;8.50;;;;;;;7.97;100.00;97674.22;4950634;28;20684;-77
2023/04/25 09:32:27;;;;;;;11.02;8.68;;;;;;;7.96;100.00;97675.97;4951040;28;20455;-83
2023/04/25 09:34:55;;;;;;;10.13;8.40;;;;;;;7.92;100.00;97669.25;4952429;28;20215;-80
2023/04/25 09:37:25;;;;;;;10.37;8.40;;;;;;;7.91;100.00;97678.06;4952470;28;20238;-82
2023/04/25 09:39:54;;;;;;;10.40;8.57;;;;;;;7.93;100.00;97683.25;4952055;28;20204;-83
2023/04/25 09:42:23;;;;;;;10.60;8.37;;;;;;;7.96;100.00;97686.50;4952526;28;20214;-84
2023/04/25 09:44:52;;;;;;;9.37;7.40;;;;;;;8.02;100.00;97690.53;4952445;28;20751;-86
2023/04/25 09:47:21;;;;;;;7.20;6.03;;;;;;;8.03;100.00;97694.84;4952602;28;20213;-89
2023/04/25 09:49:47;;;;;;;5.80;5.00;;;;;;;8.02;100.00;97693.19;4951910;29;20217;-82
2023/04/25 09:52:16;;;;;;;5.87;5.07;;;;;;;7.96;100.00;97697.03;4952011;28;20214;-80
2023/04/25 09:54:44;;;;;;;6.63;5.70;;;;;;;7.94;100.00;97691.03;4952189;28;20308;-81
2023/04/25 09:57:13;;;;;;;9.17;7.17;;;;;;;7.90;100.00;97691.34;4952269;28;20233;-82
2023/04/25 09:59:44;;;;;;;8.63;6.67;;;;;;;7.94;100.00;97692.81;4951998;28;20292;-83
2023/04/25 10:02:12;;;;;;;9.00;7.20;;;;;;;7.90;100.00;97699.25;4952318;28;20223;-83
2023/04/25 10:04:39;;;;;;;7.30;5.70;;;;;;;7.97;100.00;97708.41;4951958;28;20569;-82
2023/04/25 10:07:07;;;;;;;7.53;5.73;;;;;;;7.90;100.00;97710.59;4952707;28;20221;-82
2023/04/25 10:09:34;;;;;;;7.23;5.40;;;;;;;7.90;100.00;97707.13;4952400;28;20249;-82
2023/04/25 10:12:04;;;;;;;7.27;6.10;;;;;;;7.83;100.00;97705.84;4954863;28;20238;-89
2023/04/25 10:14:31;;;;;;;6.43;5.73;;;;;;;7.84;100.00;97712.78;4953846;28;20214;-90
2023/04/25 10:16:58;;;;;;;7.03;5.90;;;;;;;7.68;100.00;97719.97;4952086;28;20728;-91
2023/04/25 10:19:25;;;;;;;9.50;6.60;;;;;;;7.60;100.00;97724.88;4951303;28;20229;-91
2023/04/25 10:21:55;;;;;;;8.00;5.93;;;;;;;7.52;100.00;97745.56;4951963;29;20567;-91
2023/04/25 10:24:22;;;;;;;7.73;6.57;;;;;;;7.44;100.00;97750.47;4953074;28;20213;-91
2023/04/25 10:26:49;;;;;;;7.73;5.90;;;;;;;7.38;100.00;97755.28;4971288;28;20224;-91
2023/04/25 10:29:24;;;;;;;7.73;5.97;;;;;;;7.38;100.00;97760.53;4973614;28;20243;-92
2023/04/25 10:31:52;;;;;;;11.18;7.70;;;;;;;7.39;100.00;97761.28;4963127;28;20442;-89
2023/04/25 10:34:19;;;;;;;10.93;7.70;;;;;;;7.26;100.00;97772.63;4965130;28;20240;-89
2023/04/25 10:36:51;;;;;;;10.60;8.00;;;;;;;7.30;100.00;97769.72;4987718;28;20225;-87
2023/04/25 10:39:23;;;;;;;10.07;7.43;;;;;;;7.32;100.00;97762.59;4994121;28;20227;-88
2023/04/25 10:41:55;;;;;;;8.60;6.60;;;;;;;7.23;100.00;97775.47;4991126;28;20193;-87
2023/04/25 10:44:23;;;;;;;8.60;5.67;;;;;;;7.17;100.00;97773.22;4993564;28;20267;-87
2023/04/25 10:46:50;;;;;;;8.27;5.97;;;;;;;7.17;100.00;97772.34;4992421;28;20214;-87
2023/04/25 10:49:31;;;;;;;7.90;5.67;;;;;;;7.16;100.00;97782.03;4993113;28;20222;-89
2023/04/25 10:52:25;;;;;;;8.50;5.97;;;;;;;7.08;100.00;97784.25;4991897;28;20229;-91
2023/04/25 10:54:54;;;;;;;6.77;5.67;;;;;;;6.99;100.00;97778.72;4971670;28;20674;-89
2023/04/25 10:57:31;;;;;;;7.50;5.47;;;;;;;6.96;100.00;97787.63;4969509;28;20227;-88
2023/04/25 11:00:09;;;;;;;13.47;6.93;;;;;;;7.03;100.00;97796.81;4970229;28;20231;-88
2023/04/25 11:02:38;;;;;;;9.03;6.53;;;;;;;7.16;100.00;97789.91;4970123;28;20243;-89
2023/04/25 11:05:05;;;;;;;9.60;6.37;;;;;;;7.28;100.00;97791.81;4969753;28;20220;-89
2023/04/25 11:07:38;;;;;;;10.53;6.63;;;;;;;7.41;100.00;97790.09;4970177;28;20228;-89
2023/04/25 11:10:06;;;;;;;8.63;6.27;;;;;;;7.48;100.00;97796.66;4969948;28;20199;-89
2023/04/25 11:12:32;;;;;;;8.67;6.00;;;;;;;7.62;100.00;97786.13;4974125;28;20671;-90
2023/04/25 11:15:02;;;;;;;9.00;5.97;;;;;;;7.73;100.00;97800.25;4976807;28;20220;-90
2023/04/25 11:17:29;;;;;;;8.97;6.03;;;;;;;7.87;100.00;97796.78;4973286;28;20240;-89
2023/04/25 11:19:56;;;;;;;8.00;5.50;;;;;;;7.96;100.00;97790.94;4969809;28;20237;-89
2023/04/25 11:22:23;;;;;;;9.33;5.60;;;;;;;8.08;100.00;97800.69;4969589;28;20312;-81
2023/04/25 11:24:50;;;;;;;9.07;5.27;;;;;;;8.16;100.00;97798.38;4970276;28;20220;-80
2023/04/25 11:27:16;;;;;;;6.93;5.07;;;;;;;8.22;100.00;97803.28;4970406;28;20703;-85
2023/04/25 11:29:43;;;;;;;7.93;5.60;;;;;;;8.21;100.00;97805.06;4969686;28;20230;-86
2023/04/25 11:32:11;;;;;;;6.37;4.80;;;;;;;8.16;100.00;97808.91;4970274;28;20213;-86
2023/04/25 11:34:37;;;;;;;9.03;5.27;;;;;;;8.17;100.00;97805.34;4970439;28;20223;-86